Time;durP1;ratioP1;P1;durP2;ratioP2;P2;SDS_P1;SDS_P2;PMS_P1;PMS_P2;Temp;Humidity;BMP_temperature;BMP_pressure;BME280_temperature;BME280_humidity;BME280_pressure;Samples;Min_cycle;Max_cycle;Signal;HPM_P1;HPM_P2
2022/01/24 00:02:26;;;;;;;;;;;;;;;11.73;100.00;103385.34;5156726;27;19919;-51
2022/01/24 00:04:52;;;;;;;;;;;;;;;11.76;100.00;103382.38;5137959;27;19919;-58
2022/01/24 00:07:20;;;;;;;;;;;;;;;11.55;100.00;103385.22;5156329;27;20340;-51
2022/01/24 00:09:46;;;;;;;;;;;;;;;11.64;100.00;103383.53;5137775;27;20009;-48
2022/01/24 00:12:19;;;;;;;;;;;;;;;11.73;100.00;103388.03;5155585;27;20010;-46
2022/01/24 00:28:19;;;;;;;;;;;;;;;11.72;100.00;103371.13;5155597;27;19922;-49
2022/01/24 00:30:44;;;;;;;;;;;;;;;11.60;100.00;103372.22;5137750;27;19915;-52
2022/01/24 00:33:10;;;;;;;;;;;;;;;11.28;100.00;103374.16;5113660;27;19926;-51
2022/01/24 00:35:35;;;;;;;;;;;;;;;11.29;100.00;103375.03;5155775;27;20262;-54
2022/01/24 00:38:02;;;;;;;;;;;;;;;11.26;100.00;103372.63;5155730;27;19921;-51
2022/01/24 00:40:28;;;;;;;;;;;;;;;11.44;100.00;103379.00;5155679;27;19915;-51
2022/01/24 00:42:57;;;;;;;;;;;;;;;11.25;100.00;103376.28;5154877;27;19933;-47
2022/01/24 00:45:48;;;;;;;;;;;;;;;11.24;100.00;103374.59;5141848;27;20370;-48
2022/01/24 00:53:51;;;;;;;;;;;;;;;11.04;100.00;103363.81;5134328;27;20398;-51
2022/01/24 00:56:17;;;;;;;;;;;;;;;11.21;100.00;103372.19;5134686;27;19925;-52
2022/01/24 00:58:42;;;;;;;;;;;;;;;11.18;100.00;103368.78;5115463;27;19915;-52
2022/01/24 01:01:08;;;;;;;;;;;;;;;11.26;100.00;103368.09;5115992;27;19919;-52
2022/01/24 01:03:33;;;;;;;;;;;;;;;11.32;100.00;103364.88;5116144;27;19923;-51
2022/01/24 01:06:06;;;;;;;;;;;;;;;11.37;100.00;103371.66;5116042;27;20023;-52
2022/01/24 01:19:30;;;;;;;;;;;;;;;10.80;100.00;103362.34;5134773;27;20009;-50
2022/01/24 01:21:56;;;;;;;;;;;;;;;10.87;100.00;103368.00;5116109;27;20026;-52
2022/01/24 01:24:23;;;;;;;;;;;;;;;10.82;100.00;103363.03;5133741;27;19919;-51
2022/01/24 01:26:58;;;;;;;;;;;;;;;10.79;100.00;103367.81;5134147;27;19916;-54
2022/01/24 01:29:28;;;;;;;;;;;;;;;10.54;100.00;103367.28;5133910;27;20426;-50
2022/01/24 01:32:24;;;;;;;;;;;;;;;10.60;100.00;103366.72;5116023;27;19926;-54
2022/01/24 01:35:35;;;;;;;;;;;;;;;11.01;100.00;103354.22;5132841;27;19919;-53
2022/01/24 01:54:14;;;;;;;;;;;;;;;10.99;98.91;103380.28;5133152;27;20390;-48
2022/01/24 01:56:40;;;;;;;;;;;;;;;10.89;100.00;103372.22;5115358;27;19915;-49
2022/01/24 01:59:06;;;;;;;;;;;;;;;10.87;100.00;103370.69;5133986;27;19917;-53
2022/01/24 02:01:31;;;;;;;;;;;;;;;10.86;100.00;103367.13;5114761;27;19991;-50
2022/01/24 02:03:57;;;;;;;;;;;;;;;10.93;100.00;103362.09;5114883;27;19926;-49
2022/01/24 02:06:24;;;;;;;;;;;;;;;10.90;99.13;103362.38;5132935;27;19923;-54
2022/01/24 02:08:56;;;;;;;;;;;;;;;11.13;95.68;103356.81;5133386;28;19976;-52
2022/01/24 02:11:22;;;;;;;;;;;;;;;10.96;93.43;103351.09;5132785;28;20255;-54
2022/01/24 02:13:48;;;;;;;;;;;;;;;10.84;96.53;103362.88;5133765;28;19923;-54
2022/01/24 02:22:05;;;;;;;;;;;;;;;10.65;96.16;103353.81;5138690;27;19980;-53
2022/01/24 02:24:40;;;;;;;;;;;;;;;10.61;95.04;103347.06;5154066;27;19926;-52
2022/01/24 02:27:06;;;;;;;;;;;;;;;10.72;96.36;103351.44;5154210;27;19915;-52
2022/01/24 02:30:08;;;;;;;;;;;;;;;10.66;96.34;103343.94;5135350;27;19911;-50
2022/01/24 02:32:17;;;;;;;;;;;;;;;10.66;96.71;103350.16;5153363;27;20265;-53
2022/01/24 02:34:45;;;;;;;;;;;;;;;10.91;94.16;103339.97;5154076;27;19998;-55
2022/01/24 02:37:12;;;;;;;;;;;;;;;10.73;97.76;103348.63;5153878;27;19919;-54
2022/01/24 02:50:19;;;;;;;;;;;;;;;10.76;91.96;103334.97;5154135;27;19915;-50
2022/01/24 02:52:44;;;;;;;;;;;;;;;10.73;93.23;103337.94;5135230;27;19980;-51
2022/01/24 02:55:10;;;;;;;;;;;;;;;10.75;95.14;103338.63;5154011;27;19911;-51
2022/01/24 02:57:35;;;;;;;;;;;;;;;10.86;96.42;103334.19;5135328;27;20273;-50
2022/01/24 03:00:01;;;;;;;;;;;;;;;10.49;95.79;103332.06;5153937;27;20443;-56
2022/01/24 03:02:26;;;;;;;;;;;;;;;10.21;99.27;103337.09;5135339;27;19914;-52
2022/01/24 03:04:54;;;;;;;;;;;;;;;10.65;92.21;103326.19;5142130;27;20390;-47
2022/01/24 03:07:20;;;;;;;;;;;;;;;10.47;92.29;103322.34;5156393;27;20363;-51
2022/01/24 03:09:45;;;;;;;;;;;;;;;10.67;92.79;103333.13;5158325;27;19925;-51
2022/01/24 03:12:14;;;;;;;;;;;;;;;10.60;93.72;103329.28;5156368;27;19919;-53
2022/01/24 03:14:39;;;;;;;;;;;;;;;10.69;92.90;103323.13;5156145;27;19915;-55
2022/01/24 03:17:06;;;;;;;;;;;;;;;10.80;87.86;103324.00;5157837;27;20058;-56
2022/01/24 03:19:32;;;;;;;;;;;;;;;10.35;90.65;103323.34;5157294;27;20009;-54
2022/01/24 03:21:57;;;;;;;;;;;;;;;10.21;91.61;103318.38;5138972;27;20596;-52
2022/01/24 03:24:22;;;;;;;;;;;;;;;10.35;91.13;103318.00;5156828;27;20366;-50
2022/01/24 03:26:48;;;;;;;;;;;;;;;10.38;91.39;103315.09;5157188;27;20283;-51
2022/01/24 03:29:14;;;;;;;;;;;;;;;10.31;89.47;103316.56;5157440;27;19921;-52
2022/01/24 03:31:40;;;;;;;;;;;;;;;10.55;89.41;103320.81;5156971;27;19923;-54
2022/01/24 03:34:06;;;;;;;;;;;;;;;10.39;91.59;103314.09;5156135;27;20445;-53
2022/01/24 03:36:31;;;;;;;;;;;;;;;10.13;96.31;103316.34;5156509;27;19919;-53
2022/01/24 03:38:57;;;;;;;;;;;;;;;10.19;93.02;103316.66;5157301;27;19915;-49
2022/01/24 03:41:22;;;;;;;;;;;;;;;10.60;89.84;103315.88;5155793;27;19962;-53
2022/01/24 03:43:48;;;;;;;;;;;;;;;10.53;90.61;103310.25;5157339;27;19915;-53
2022/01/24 03:48:50;;;;;;;;;;;;;;;10.66;90.77;103299.31;5156934;27;19919;-50
2022/01/24 03:51:15;;;;;;;;;;;;;;;10.22;93.70;103312.03;5156770;27;20417;-49
2022/01/24 03:53:42;;;;;;;;;;;;;;;10.35;93.96;103307.31;5156585;27;20005;-50
2022/01/24 03:56:07;;;;;;;;;;;;;;;10.61;90.68;103310.41;5156804;27;20397;-52
2022/01/24 03:58:33;;;;;;;;;;;;;;;10.43;93.04;103318.22;5155064;27;19919;-48
2022/01/24 04:00:59;;;;;;;;;;;;;;;10.14;94.43;103308.16;5155835;27;20375;-48
2022/01/24 04:03:25;;;;;;;;;;;;;;;10.35;92.44;103304.63;5155041;27;19911;-50
2022/01/24 04:05:50;;;;;;;;;;;;;;;10.37;91.22;103308.00;5156962;27;19950;-50
2022/01/24 04:08:16;;;;;;;;;;;;;;;10.58;89.56;103301.81;5154981;27;19955;-52
2022/01/24 04:10:44;;;;;;;;;;;;;;;10.55;91.36;103304.75;5137824;27;19922;-49
2022/01/24 04:16:31;;;;;;;;;;;;;;;10.88;89.13;103305.44;5140469;27;20435;-52
2022/01/24 04:21:21;;;;;;;;;;;;;;;10.97;88.84;103307.28;5154606;27;19915;-54
2022/01/24 04:23:51;;;;;;;;;;;;;;;11.01;89.47;103306.03;5148939;27;19969;-48
2022/01/24 04:26:17;;;;;;;;;;;;;;;11.05;90.36;103317.31;5156046;27;20362;-49
2022/01/24 04:28:42;;;;;;;;;;;;;;;11.04;91.00;103313.78;5152483;27;19956;-50
2022/01/24 04:31:08;;;;;;;;;;;;;;;11.05;91.86;103315.47;5146480;27;19964;-54
2022/01/24 04:33:33;;;;;;;;;;;;;;;11.08;91.51;103316.22;5133791;27;19941;-55
2022/01/24 04:35:58;;;;;;;;;;;;;;;11.03;92.21;103314.75;5134586;27;20385;-53
2022/01/24 04:38:24;;;;;;;;;;;;;;;11.09;92.67;103313.38;5116195;27;20390;-57
2022/01/24 04:40:53;;;;;;;;;;;;;;;11.03;93.53;103311.25;5135406;27;20013;-51
2022/01/24 04:46:10;;;;;;;;;;;;;;;11.09;93.63;103309.88;5135063;27;19927;-50
2022/01/24 04:56:51;;;;;;;;;;;;;;;11.26;86.94;103311.84;5123762;27;19915;-52
2022/01/24 04:59:16;;;;;;;;;;;;;;;11.10;86.85;103311.56;5135135;27;20086;-53
2022/01/24 05:01:42;;;;;;;;;;;;;;;10.88;88.92;103313.47;5134348;27;19981;-52
2022/01/24 05:04:07;;;;;;;;;;;;;;;10.99;87.13;103307.16;5134609;27;19963;-51
2022/01/24 05:06:32;;;;;;;;;;;;;;;11.12;83.62;103304.22;5133815;27;19923;-53
2022/01/24 05:08:58;;;;;;;;;;;;;;;11.17;84.55;103310.00;5134518;27;19920;-52
2022/01/24 05:11:49;;;;;;;;;;;;;;;10.89;86.02;103307.13;5134586;27;19923;-50
2022/01/24 05:24:48;;;;;;;;;;;;;;;10.63;91.93;103302.28;5115749;27;19916;-51
2022/01/24 05:27:14;;;;;;;;;;;;;;;10.61;93.70;103309.59;5134162;27;19920;-51
2022/01/24 05:29:39;;;;;;;;;;;;;;;10.84;90.45;103293.28;5133276;27;19934;-49
2022/01/24 05:32:07;;;;;;;;;;;;;;;10.79;88.55;103298.22;5115816;27;19919;-50
2022/01/24 05:34:33;;;;;;;;;;;;;;;10.75;89.90;103298.50;5133700;27;19915;-48
2022/01/24 05:36:58;;;;;;;;;;;;;;;10.83;90.26;103297.81;5132950;27;19967;-49
2022/01/24 05:39:23;;;;;;;;;;;;;;;10.85;89.67;103298.53;5134003;27;19923;-50
2022/01/24 05:41:49;;;;;;;;;;;;;;;10.66;91.46;103291.28;5133665;27;19919;-51
2022/01/24 05:44:14;;;;;;;;;;;;;;;10.59;92.74;103306.16;5133716;27;19922;-51
2022/01/24 05:46:40;;;;;;;;;;;;;;;10.65;93.36;103294.94;5133863;27;19923;-51
2022/01/24 05:49:05;;;;;;;;;;;;;;;10.37;93.83;103300.00;5133924;27;20128;-50
2022/01/24 05:51:30;;;;;;;;;;;;;;;10.61;93.18;103296.22;5133297;27;19919;-52
2022/01/24 05:53:56;;;;;;;;;;;;;;;10.62;90.79;103300.56;5115722;27;19966;-52
2022/01/24 05:56:22;;;;;;;;;;;;;;;10.50;92.85;103304.31;5133774;27;20271;-48
2022/01/24 05:58:47;;;;;;;;;;;;;;;10.43;95.35;103299.50;5133438;27;19911;-51
2022/01/24 06:01:13;;;;;;;;;;;;;;;10.61;93.63;103298.88;5133720;27;20252;-51
2022/01/24 06:03:38;;;;;;;;;;;;;;;10.63;93.09;103296.91;5133457;27;20017;-49
2022/01/24 06:06:03;;;;;;;;;;;;;;;10.37;95.51;103305.34;5133718;27;20005;-53
2022/01/24 06:08:29;;;;;;;;;;;;;;;10.33;98.98;103302.09;5115256;28;20274;-51
2022/01/24 06:10:58;;;;;;;;;;;;;;;10.14;100.00;103302.81;5133753;28;20367;-51
2022/01/24 06:13:24;;;;;;;;;;;;;;;10.31;100.00;103305.88;5115626;28;19919;-52
2022/01/24 06:15:49;;;;;;;;;;;;;;;10.16;100.00;103305.38;5136045;27;19926;-50
2022/01/24 06:18:16;;;;;;;;;;;;;;;10.18;100.00;103301.59;5153727;27;20015;-53
2022/01/24 06:20:42;;;;;;;;;;;;;;;10.44;100.00;103306.56;5153805;27;19918;-49
2022/01/24 06:23:08;;;;;;;;;;;;;;;10.53;100.00;103304.03;5134925;27;20366;-52
2022/01/24 06:25:33;;;;;;;;;;;;;;;10.60;100.00;103308.72;5153613;27;20027;-55
2022/01/24 06:27:58;;;;;;;;;;;;;;;10.52;100.00;103308.56;5154869;27;19911;-52
2022/01/24 06:30:24;;;;;;;;;;;;;;;10.52;100.00;103311.25;5154244;27;20350;-54
2022/01/24 06:32:49;;;;;;;;;;;;;;;10.27;100.00;103309.81;5135325;27;19967;-56
2022/01/24 06:35:15;;;;;;;;;;;;;;;10.52;100.00;103315.72;5132267;27;19915;-55
2022/01/24 06:37:40;;;;;;;;;;;;;;;10.33;100.00;103311.94;5134495;27;19974;-53
2022/01/24 06:40:06;;;;;;;;;;;;;;;10.39;100.00;103311.44;5154494;27;19927;-51
2022/01/24 06:42:32;;;;;;;;;;;;;;;10.29;100.00;103307.84;5138800;27;19926;-55
2022/01/24 06:44:57;;;;;;;;;;;;;;;9.98;100.00;103310.47;5157595;27;19915;-50
2022/01/24 06:47:23;;;;;;;;;;;;;;;10.03;100.00;103305.59;5139503;27;20122;-54
2022/01/24 06:49:49;;;;;;;;;;;;;;;10.16;95.19;103308.91;5157232;27;19915;-53
2022/01/24 06:52:14;;;;;;;;;;;;;;;10.33;92.72;103311.94;5138968;27;19993;-54
2022/01/24 06:54:41;;;;;;;;;;;;;;;10.40;93.80;103315.84;5156817;27;19918;-50
2022/01/24 06:57:07;;;;;;;;;;;;;;;10.56;95.33;103312.66;5136441;27;19919;-54
2022/01/24 06:59:32;;;;;;;;;;;;;;;10.49;96.22;103316.00;5139305;27;19911;-50
2022/01/24 07:01:58;;;;;;;;;;;;;;;10.71;95.53;103309.59;5121142;27;19919;-51
2022/01/24 07:04:23;;;;;;;;;;;;;;;10.74;95.40;103304.00;5156960;27;20448;-51
2022/01/24 07:06:49;;;;;;;;;;;;;;;10.92;94.49;103312.22;5138450;27;19930;-47
2022/01/24 07:09:14;;;;;;;;;;;;;;;10.95;95.04;103316.44;5157706;27;19919;-53
2022/01/24 07:11:40;;;;;;;;;;;;;;;10.50;96.21;103326.56;5138717;27;19914;-48
2022/01/24 07:14:10;;;;;;;;;;;;;;;10.40;97.59;103323.84;5139199;27;20105;-52
2022/01/24 07:17:00;;;;;;;;;;;;;;;10.78;93.47;103320.63;5138071;27;19922;-49
2022/01/24 07:19:22;;;;;;;;;;;;;;;10.62;90.51;103330.00;5156306;27;20294;-49
2022/01/24 07:21:48;;;;;;;;;;;;;;;10.49;92.70;103326.69;5137861;27;19911;-54
2022/01/24 07:24:13;;;;;;;;;;;;;;;10.45;93.81;103320.75;5156852;27;19926;-53
2022/01/24 07:26:39;;;;;;;;;;;;;;;10.27;97.17;103321.38;5156451;27;19911;-54
2022/01/24 07:29:04;;;;;;;;;;;;;;;10.49;96.84;103324.03;5157347;27;19918;-52
2022/01/24 07:31:30;;;;;;;;;;;;;;;10.51;93.83;103320.25;5138717;27;20290;-54
2022/01/24 07:33:55;;;;;;;;;;;;;;;10.39;93.60;103324.81;5156755;27;19960;-52
2022/01/24 07:36:21;;;;;;;;;;;;;;;10.67;92.18;103330.44;5156643;27;19918;-55
2022/01/24 07:38:47;;;;;;;;;;;;;;;10.47;93.93;103340.19;5138060;27;19922;-48
2022/01/24 07:41:12;;;;;;;;;;;;;;;10.68;92.28;103340.16;5156976;27;19910;-57
2022/01/24 07:43:38;;;;;;;;;;;;;;;10.75;91.38;103345.84;5156757;27;19971;-55
2022/01/24 07:46:03;;;;;;;;;;;;;;;10.68;92.28;103353.56;5157049;27;19914;-54
2022/01/24 07:48:28;;;;;;;;;;;;;;;10.68;93.22;103350.00;5137985;27;20353;-51
2022/01/24 07:50:54;;;;;;;;;;;;;;;10.81;90.79;103349.78;5137270;27;19914;-51
2022/01/24 07:53:20;;;;;;;;;;;;;;;10.86;89.88;103351.06;5155622;27;19915;-49
2022/01/24 07:55:47;;;;;;;;;;;;;;;10.94;88.77;103345.03;5156076;27;19922;-53
2022/01/24 07:58:13;;;;;;;;;;;;;;;11.00;88.41;103341.00;5156627;27;19915;-51
2022/01/24 08:00:38;;;;;;;;;;;;;;;10.68;88.78;103352.69;5155919;27;19911;-53
2022/01/24 08:03:04;;;;;;;;;;;;;;;10.50;91.18;103352.47;5155884;27;19923;-52
2022/01/24 08:05:29;;;;;;;;;;;;;;;10.63;90.28;103358.47;5156334;27;19946;-54
2022/01/24 08:07:55;;;;;;;;;;;;;;;10.79;88.72;103355.28;5156173;27;19921;-51
2022/01/24 08:10:20;;;;;;;;;;;;;;;10.40;93.11;103353.28;5156144;27;19926;-49
2022/01/24 08:12:46;;;;;;;;;;;;;;;10.64;91.07;103352.13;5137586;27;19954;-52
2022/01/24 08:15:14;;;;;;;;;;;;;;;10.73;90.68;103361.19;5155454;27;19960;-52
2022/01/24 08:17:44;;;;;;;;;;;;;;;10.65;91.86;103356.50;5156153;27;19923;-52
2022/01/24 08:20:10;;;;;;;;;;;;;;;10.25;95.45;103357.22;5155905;27;19911;-50
2022/01/24 08:22:36;;;;;;;;;;;;;;;10.52;93.71;103358.53;5155912;27;19919;-52
2022/01/24 08:25:04;;;;;;;;;;;;;;;10.82;92.47;103356.81;5149265;27;19926;-53
2022/01/24 08:27:30;;;;;;;;;;;;;;;10.89;93.53;103360.69;5155898;27;19915;-50
2022/01/24 08:29:55;;;;;;;;;;;;;;;10.96;92.18;103351.09;5156254;27;19968;-52
2022/01/24 08:32:21;;;;;;;;;;;;;;;10.88;92.50;103365.16;5120349;27;19954;-53
2022/01/24 08:34:46;;;;;;;;;;;;;;;10.82;93.33;103364.84;5136147;27;19915;-51
2022/01/24 08:37:12;;;;;;;;;;;;;;;10.90;92.96;103362.38;5125482;27;19915;-47
2022/01/24 08:39:38;;;;;;;;;;;;;;;10.75;93.94;103369.94;5128414;27;19915;-48
2022/01/24 08:47:19;;;;;;;;;;;;;;;10.90;94.10;103362.38;5120538;27;19926;-51
2022/01/24 08:49:44;;;;;;;;;;;;;;;10.79;93.54;103367.81;5154267;27;20410;-53
2022/01/24 08:52:10;;;;;;;;;;;;;;;10.58;95.26;103374.06;5136979;27;19965;-50
2022/01/24 08:54:35;;;;;;;;;;;;;;;10.76;93.91;103375.13;5155571;27;19919;-51
2022/01/24 08:57:01;;;;;;;;;;;;;;;10.34;98.61;103372.47;5155397;27;19919;-53
2022/01/24 08:59:26;;;;;;;;;;;;;;;10.34;96.15;103367.13;5155727;27;19923;-52
2022/01/24 09:01:52;;;;;;;;;;;;;;;10.46;93.89;103367.94;5136227;27;19926;-49
2022/01/24 09:04:17;;;;;;;;;;;;;;;10.50;90.86;103363.19;5135256;27;19919;-51
2022/01/24 09:06:43;;;;;;;;;;;;;;;10.42;88.48;103371.84;5155146;27;19933;-54
2022/01/24 09:09:08;;;;;;;;;;;;;;;10.81;85.27;103369.38;5133100;27;19922;-53
2022/01/24 09:11:35;;;;;;;;;;;;;;;10.86;88.16;103364.47;5136091;27;19929;-53
2022/01/24 09:14:02;;;;;;;;;;;;;;;10.76;90.09;103369.78;5135754;27;19911;-52
2022/01/24 09:16:27;;;;;;;;;;;;;;;10.74;90.24;103363.72;5154090;27;20002;-52
2022/01/24 09:18:53;;;;;;;;;;;;;;;10.63;93.25;103365.63;5136312;27;20010;-50
2022/01/24 09:21:19;;;;;;;;;;;;;;;10.63;96.20;103371.84;5153096;27;20021;-54
2022/01/24 09:23:44;;;;;;;;;;;;;;;10.52;100.00;103369.25;5153740;27;19927;-50
2022/01/24 09:26:09;;;;;;;;;;;;;;;10.45;100.00;103377.81;5154528;27;19938;-53
2022/01/24 09:28:35;;;;;;;;;;;;;;;10.61;100.00;103376.50;5154901;27;19962;-49
2022/01/24 09:31:00;;;;;;;;;;;;;;;10.68;100.00;103374.09;5154005;27;19915;-53
2022/01/24 09:33:26;;;;;;;;;;;;;;;10.60;100.00;103366.72;5154339;27;19914;-52
2022/01/24 09:35:52;;;;;;;;;;;;;;;10.78;100.00;103374.16;5135947;27;19926;-50
2022/01/24 09:38:20;;;;;;;;;;;;;;;10.59;100.00;103375.75;5155094;27;19915;-53
2022/01/24 09:40:46;;;;;;;;;;;;;;;10.88;100.00;103372.38;5154652;27;20377;-50
2022/01/24 09:43:11;;;;;;;;;;;;;;;10.83;98.69;103366.56;5154431;27;20002;-50
2022/01/24 09:45:37;;;;;;;;;;;;;;;10.74;100.00;103363.72;5153869;27;19923;-53
2022/01/24 09:48:03;;;;;;;;;;;;;;;10.79;100.00;103363.31;5153024;27;19911;-52
2022/01/24 09:50:29;;;;;;;;;;;;;;;10.23;100.00;103367.22;5133688;27;19916;-51
2022/01/24 09:52:54;;;;;;;;;;;;;;;10.47;100.00;103367.81;5142258;27;19922;-51
2022/01/24 09:55:21;;;;;;;;;;;;;;;10.21;100.00;103366.50;5154439;27;20311;-54
2022/01/24 09:57:47;;;;;;;;;;;;;;;10.20;100.00;103368.31;5132787;27;19915;-55
2022/01/24 10:00:14;;;;;;;;;;;;;;;10.32;100.00;103363.75;5129713;27;20307;-54
2022/01/24 10:02:40;;;;;;;;;;;;;;;10.56;96.80;103362.63;5134860;27;19911;-51
2022/01/24 10:05:26;;;;;;;;;;;;;;;10.65;93.02;103375.22;5138887;27;19922;-52
2022/01/24 10:07:57;;;;;;;;;;;;;;;10.26;96.33;103370.47;5133648;27;19916;-55
2022/01/24 10:10:46;;;;;;;;;;;;;;;10.39;99.00;103367.59;5115327;28;19915;-47
2022/01/24 10:16:33;;;;;;;;;;;;;;;10.91;93.05;103372.09;5133292;27;19915;-54
2022/01/24 10:18:59;;;;;;;;;;;;;;;10.65;91.37;103369.03;5133013;28;19919;-51
2022/01/24 10:21:25;;;;;;;;;;;;;;;10.94;89.21;103377.19;5114539;28;20017;-54
2022/01/24 10:23:50;;;;;;;;;;;;;;;11.06;86.62;103367.22;5114807;28;20001;-54
2022/01/24 10:26:16;;;;;;;;;;;;;;;11.18;85.76;103363.41;5132818;28;19915;-54
2022/01/24 10:28:43;;;;;;;;;;;;;;;11.27;85.19;103367.09;5133679;28;19920;-55
2022/01/24 10:31:17;;;;;;;;;;;;;;;10.98;83.86;103369.72;5133774;28;20370;-55
2022/01/24 10:33:49;;;;;;;;;;;;;;;11.15;82.86;103366.38;5133413;28;20010;-57
2022/01/24 10:36:24;;;;;;;;;;;;;;;11.11;85.31;103372.16;5115169;28;20007;-54
2022/01/24 10:38:58;;;;;;;;;;;;;;;11.12;85.95;103371.19;5115063;28;19923;-54
2022/01/24 10:41:28;;;;;;;;;;;;;;;11.18;84.41;103366.09;5116228;28;19927;-51
2022/01/24 10:43:56;;;;;;;;;;;;;;;11.24;85.10;103375.44;5114790;28;19923;-57
2022/01/24 10:46:26;;;;;;;;;;;;;;;11.36;83.14;103364.59;5133118;28;19927;-55
2022/01/24 10:49:03;;;;;;;;;;;;;;;11.28;82.44;103359.94;5133209;28;19915;-53
2022/01/24 10:51:35;;;;;;;;;;;;;;;11.25;81.87;103353.00;5144602;27;19979;-53
2022/01/24 10:54:01;;;;;;;;;;;;;;;11.25;81.18;103350.31;5153687;27;19919;-55
2022/01/24 10:56:31;;;;;;;;;;;;;;;10.65;87.56;103364.53;5154146;27;20051;-57
2022/01/24 10:59:14;;;;;;;;;;;;;;;10.60;89.28;103361.38;5153420;27;20397;-52
2022/01/24 11:01:44;;;;;;;;;;;;;;;10.52;90.31;103361.22;5134673;27;20001;-54
2022/01/24 11:04:10;;;;;;;;;;;;;;;10.47;88.00;103361.59;5117721;27;19915;-51
2022/01/24 11:06:38;;;;;;;;;;;;;;;10.84;84.78;103350.38;5146768;27;19915;-50
2022/01/24 11:09:23;;;;;;;;;;;;;;;10.87;83.90;103349.25;5131985;27;19923;-51
2022/01/24 11:11:53;;;;;;;;;;;;;;;11.13;82.52;103349.59;5138438;27;20013;-49
2022/01/24 11:14:20;;;;;;;;;;;;;;;11.35;79.30;103345.00;5137981;27;19946;-55
2022/01/24 11:16:46;;;;;;;;;;;;;;;11.28;78.47;103349.22;5152914;27;19931;-50
2022/01/24 11:19:18;;;;;;;;;;;;;;;11.20;80.08;103341.88;5150155;27;19945;-52
2022/01/24 11:21:44;;;;;;;;;;;;;;;11.36;79.75;103340.50;5135282;27;19926;-53
2022/01/24 11:24:16;;;;;;;;;;;;;;;11.52;79.58;103335.41;5150008;27;19914;-51
2022/01/24 11:26:42;;;;;;;;;;;;;;;11.50;77.18;103331.19;5135339;27;19915;-50
2022/01/24 11:29:07;;;;;;;;;;;;;;;11.49;78.10;103330.34;5147343;27;19915;-52
2022/01/24 11:31:50;;;;;;;;;;;;;;;11.07;80.40;103336.75;5147424;27;20016;-52
2022/01/24 11:34:30;;;;;;;;;;;;;;;10.87;83.59;103325.16;5156120;27;19914;-47
2022/01/24 11:36:56;;;;;;;;;;;;;;;11.05;81.86;103333.38;5155873;27;20011;-53
2022/01/24 11:39:22;;;;;;;;;;;;;;;11.13;82.59;103333.53;5138294;27;19946;-52
2022/01/24 11:41:48;;;;;;;;;;;;;;;11.11;80.44;103332.81;5157277;27;19926;-48
2022/01/24 11:44:17;;;;;;;;;;;;;;;11.42;78.16;103318.50;5156519;27;20001;-52
2022/01/24 11:46:52;;;;;;;;;;;;;;;11.59;77.21;103324.97;5156567;27;20009;-53
2022/01/24 11:49:38;;;;;;;;;;;;;;;11.72;75.57;103319.31;5155243;27;19915;-54
2022/01/24 11:52:12;;;;;;;;;;;;;;;11.80;74.96;103319.47;5156595;27;19914;-54
2022/01/24 11:57:33;;;;;;;;;;;;;;;11.36;78.33;103327.94;5136163;27;19927;-52
2022/01/24 12:00:03;;;;;;;;;;;;;;;11.46;79.27;103319.91;5143281;27;19915;-53
2022/01/24 12:02:32;;;;;;;;;;;;;;;11.56;77.58;103327.94;5156389;27;19911;-52
2022/01/24 12:05:00;;;;;;;;;;;;;;;11.35;80.37;103328.09;5137393;27;19972;-52
2022/01/24 12:07:29;;;;;;;;;;;;;;;11.65;77.48;103323.56;5137301;27;19995;-50
2022/01/24 12:10:11;;;;;;;;;;;;;;;11.65;76.13;103323.56;5138114;27;19919;-50
2022/01/24 12:12:43;;;;;;;;;;;;;;;11.65;75.77;103326.25;5117272;27;20333;-49
2022/01/24 12:15:10;;;;;;;;;;;;;;;11.56;75.92;103322.59;5134069;27;20010;-51
2022/01/24 12:17:44;;;;;;;;;;;;;;;11.80;72.82;103322.16;5154231;27;19915;-50
2022/01/24 12:20:28;;;;;;;;;;;;;;;11.91;72.61;103319.31;5136985;27;20343;-53
2022/01/24 12:22:54;;;;;;;;;;;;;;;12.01;70.51;103318.50;5155870;27;19923;-51
2022/01/24 12:25:39;;;;;;;;;;;;;;;11.79;70.32;103317.78;5155644;27;19967;-51
2022/01/24 12:28:15;;;;;;;;;;;;;;;12.05;69.39;103314.53;5152014;27;20370;-54
2022/01/24 12:30:59;;;;;;;;;;;;;;;11.78;70.93;103308.06;5137734;27;19964;-52
2022/01/24 12:33:44;;;;;;;;;;;;;;;11.88;69.68;103306.19;5134746;27;19919;-53
2022/01/24 12:36:11;;;;;;;;;;;;;;;11.53;72.40;103293.41;5134905;27;19915;-50
2022/01/24 12:38:44;;;;;;;;;;;;;;;11.35;73.19;103299.44;5116701;27;20319;-50
2022/01/24 12:41:17;;;;;;;;;;;;;;;11.69;71.70;103293.69;5134621;27;19915;-54
2022/01/24 12:44:09;;;;;;;;;;;;;;;11.61;71.40;103291.69;5116630;27;20318;-54
2022/01/24 12:46:35;;;;;;;;;;;;;;;11.73;71.77;103284.34;5135027;27;19925;-51
2022/01/24 12:49:02;;;;;;;;;;;;;;;11.75;71.62;103290.41;5134474;27;19915;-51
2022/01/24 12:51:29;;;;;;;;;;;;;;;12.03;69.64;103285.16;5116125;27;19961;-52
2022/01/24 12:53:55;;;;;;;;;;;;;;;12.00;68.95;103282.75;5116412;27;19979;-54
2022/01/24 12:56:24;;;;;;;;;;;;;;;12.10;68.28;103280.06;5116005;27;19921;-55
2022/01/24 12:58:50;;;;;;;;;;;;;;;12.03;68.86;103289.69;5134670;27;19927;-53
2022/01/24 13:01:37;;;;;;;;;;;;;;;12.13;68.23;103282.47;5134197;27;20371;-55
2022/01/24 13:04:05;;;;;;;;;;;;;;;12.14;67.71;103288.69;5134100;27;19965;-51
2022/01/24 13:06:32;;;;;;;;;;;;;;;12.24;67.68;103283.28;5134657;27;19992;-54
2022/01/24 13:08:58;;;;;;;;;;;;;;;12.32;67.34;103278.84;5116098;27;19926;-53
2022/01/24 13:11:24;;;;;;;;;;;;;;;12.37;67.70;103275.75;5134485;27;19911;-52
2022/01/24 13:14:30;;;;;;;;;;;;;;;12.28;67.71;103279.31;5116089;27;19923;-50
2022/01/24 13:22:42;;;;;;;;;;;;;;;12.53;67.16;103279.63;5134169;27;20007;-52
2022/01/24 13:25:08;;;;;;;;;;;;;;;12.48;68.44;103277.38;5133684;27;19919;-54
2022/01/24 13:27:37;;;;;;;;;;;;;;;12.51;68.18;103271.72;5134126;27;19918;-51
2022/01/24 13:30:04;;;;;;;;;;;;;;;12.46;68.93;103269.50;5134253;27;19929;-52
2022/01/24 13:32:42;;;;;;;;;;;;;;;12.35;69.91;103261.63;5127410;27;20006;-48
2022/01/24 13:35:13;;;;;;;;;;;;;;;12.43;68.38;103269.78;5154565;27;20373;-52
2022/01/24 13:37:39;;;;;;;;;;;;;;;12.47;67.49;103263.13;5154743;27;19915;-53
2022/01/24 13:40:05;;;;;;;;;;;;;;;12.47;67.49;103271.19;5136331;27;20308;-53
2022/01/24 13:42:34;;;;;;;;;;;;;;;12.44;67.55;103268.78;5135780;27;20376;-52
2022/01/24 13:44:59;;;;;;;;;;;;;;;12.50;67.11;103261.97;5143951;27;19910;-57
2022/01/24 13:47:25;;;;;;;;;;;;;;;12.41;67.38;103269.06;5153971;27;20345;-58
2022/01/24 13:49:50;;;;;;;;;;;;;;;12.34;68.02;103265.31;5153380;27;19962;-50
2022/01/24 13:52:18;;;;;;;;;;;;;;;12.31;68.85;103262.91;5136002;27;20338;-50
2022/01/24 13:54:43;;;;;;;;;;;;;;;12.29;68.28;103262.22;5136233;27;20354;-53
2022/01/24 13:57:16;;;;;;;;;;;;;;;12.18;68.85;103257.88;5134684;27;20002;-54
2022/01/24 13:59:42;;;;;;;;;;;;;;;12.24;68.67;103257.28;5133579;27;19915;-53
2022/01/24 14:02:15;;;;;;;;;;;;;;;12.15;70.05;103250.97;5133492;27;19923;-52
2022/01/24 14:04:52;;;;;;;;;;;;;;;12.14;70.20;103253.81;5133869;27;19920;-49
2022/01/24 14:07:33;;;;;;;;;;;;;;;11.99;71.50;103256.91;5133096;27;19922;-52
2022/01/24 14:10:03;;;;;;;;;;;;;;;11.99;71.53;103245.31;5133664;27;19915;-50
2022/01/24 14:13:12;;;;;;;;;;;;;;;11.93;72.79;103248.59;5133266;27;20450;-54
2022/01/24 14:15:28;;;;;;;;;;;;;;;11.96;72.64;103241.13;5124953;28;19922;-49
2022/01/24 14:20:35;;;;;;;;;;;;;;;11.99;73.57;103234.59;5131968;28;19919;-48
2022/01/24 14:23:03;;;;;;;;;;;;;;;11.91;73.85;103233.50;5133461;28;19929;-51
2022/01/24 14:25:31;;;;;;;;;;;;;;;11.95;74.08;103233.22;5133346;28;19920;-51
2022/01/24 14:28:07;;;;;;;;;;;;;;;11.91;74.94;103238.03;5133729;28;19922;-51
2022/01/24 14:30:34;;;;;;;;;;;;;;;11.99;74.89;103235.47;5115507;28;19915;-54
2022/01/24 14:33:18;;;;;;;;;;;;;;;12.06;74.62;103233.09;5133495;28;19911;-50
2022/01/24 14:36:02;;;;;;;;;;;;;;;12.03;75.98;103236.88;5133594;28;19915;-51